Time;durP1;ratioP1;P1;durP2;ratioP2;P2;SDS_P1;SDS_P2;PMS_P1;PMS_P2;Temp;Humidity;BMP_temperature;BMP_pressure;BME280_temperature;BME280_humidity;BME280_pressure;Samples;Min_cycle;Max_cycle;Signal;HPM_P1;HPM_P2
2023/01/27 00:00:08;;;;;;;8.02;2.20;;;4.80;99.90;;;;;;5028165;28;20041;-60
2023/01/27 00:02:34;;;;;;;11.13;2.20;;;4.70;99.90;;;;;;5028611;28;20040;-59
2023/01/27 00:04:59;;;;;;;8.65;2.22;;;4.70;99.90;;;;;;5027649;28;20022;-59
2023/01/27 00:07:25;;;;;;;10.85;2.80;;;4.70;99.90;;;;;;5025590;28;20034;-61
2023/01/27 00:09:50;;;;;;;8.23;2.25;;;4.70;99.90;;;;;;5026173;28;20034;-54
2023/01/27 00:15:06;;;;;;;8.65;2.55;;;4.80;99.90;;;;;;5034924;28;20563;-60
2023/01/27 00:17:32;;;;;;;9.88;2.63;;;4.80;99.90;;;;;;5032553;28;20107;-60
2023/01/27 00:19:58;;;;;;;10.40;2.40;;;4.80;99.90;;;;;;5032365;28;20127;-60
2023/01/27 00:25:08;;;;;;;7.53;1.98;;;4.70;99.90;;;;;;5025456;28;20099;-59
2023/01/27 00:27:34;;;;;;;12.30;2.28;;;4.60;99.90;;;;;;5027445;28;20030;-59
2023/01/27 00:29:59;;;;;;;11.75;2.20;;;4.70;99.90;;;;;;5022898;28;20706;-61
2023/01/27 00:35:09;;;;;;;7.07;2.35;;;4.70;99.90;;;;;;5027117;28;20115;-61
2023/01/27 00:37:35;;;;;;;13.77;2.45;;;4.80;99.90;;;;;;5028942;28;20077;-59
2023/01/27 00:40:01;;;;;;;6.28;2.42;;;4.70;99.90;;;;;;5028029;28;20091;-60
2023/01/27 00:42:26;;;;;;;10.02;2.58;;;4.70;99.90;;;;;;5020241;28;20030;-62
2023/01/27 00:47:36;;;;;;;12.70;2.53;;;4.80;99.90;;;;;;5025690;28;20397;-57
2023/01/27 00:50:02;;;;;;;10.07;2.72;;;4.80;99.90;;;;;;5026495;28;20025;-61
2023/01/27 00:52:28;;;;;;;14.07;3.58;;;4.80;99.90;;;;;;5027039;28;20111;-61
2023/01/27 00:54:53;;;;;;;16.45;3.47;;;4.90;99.90;;;;;;5028228;28;20076;-57
2023/01/27 00:57:19;;;;;;;12.77;2.80;;;4.80;99.90;;;;;;5026866;28;20029;-61
2023/01/27 00:59:44;;;;;;;12.50;3.20;;;4.70;99.90;;;;;;5028022;28;20034;-59
2023/01/27 01:02:10;;;;;;;11.38;3.85;;;4.70;99.90;;;;;;5037981;28;20052;-60
2023/01/27 01:04:35;;;;;;;13.27;3.53;;;4.60;99.90;;;;;;5027233;28;20029;-61
2023/01/27 01:13:45;;;;;;;12.18;4.22;;;4.60;99.90;;;;;;5017993;28;20032;-57
2023/01/27 01:16:16;;;;;;;10.88;4.30;;;4.70;99.90;;;;;;5028309;28;20041;-60
2023/01/27 01:18:42;;;;;;;9.55;3.15;;;4.70;99.90;;;;;;5014090;28;20048;-60
2023/01/27 01:21:08;;;;;;;11.32;4.00;;;4.60;99.90;;;;;;5026123;28;20034;-60
2023/01/27 01:23:37;;;;;;;11.73;3.80;;;4.60;99.90;;;;;;5025406;28;20037;-60
2023/01/27 01:26:03;;;;;;;14.23;4.38;;;4.60;99.90;;;;;;5027451;28;20033;-60
2023/01/27 01:28:29;;;;;;;10.25;3.90;;;4.60;99.90;;;;;;5024514;28;20033;-59
2023/01/27 01:30:54;;;;;;;14.50;3.97;;;4.50;99.90;;;;;;5022628;28;20120;-60
2023/01/27 01:33:20;;;;;;;9.07;3.28;;;4.60;99.90;;;;;;5025324;28;20495;-58
2023/01/27 01:35:46;;;;;;;14.05;3.60;;;4.50;99.90;;;;;;5026510;28;20033;-59
2023/01/27 01:38:12;;;;;;;12.93;4.20;;;4.60;99.90;;;;;;5027096;28;20040;-61
2023/01/27 01:40:44;;;;;;;15.27;4.15;;;4.60;99.90;;;;;;5031591;28;20025;-62
2023/01/27 01:43:15;;;;;;;16.25;4.80;;;4.60;99.90;;;;;;5026604;28;20131;-54
2023/01/27 01:45:48;;;;;;;14.85;5.65;;;4.70;99.90;;;;;;5026086;28;20026;-51
2023/01/27 01:48:16;;;;;;;;;;;4.60;99.90;;;;;;5022154;28;20065;-51
2023/01/27 01:50:46;;;;;;;13.18;4.78;;;4.70;99.90;;;;;;5024096;28;19944;-52
2023/01/27 01:53:11;;;;;;;12.20;4.82;;;4.60;99.90;;;;;;5026767;28;20037;-51
2023/01/27 01:55:39;;;;;;;12.13;4.55;;;4.60;99.90;;;;;;5027534;28;20029;-51
2023/01/27 01:58:07;;;;;;;14.25;5.72;;;4.70;99.90;;;;;;5023017;28;20029;-54
2023/01/27 02:00:33;;;;;;;11.73;4.90;;;4.60;99.90;;;;;;5027286;28;20033;-52
2023/01/27 02:03:00;;;;;;;16.23;5.70;;;4.70;99.90;;;;;;5026798;28;20057;-50
2023/01/27 02:05:44;;;;;;;18.90;5.68;;;4.60;99.90;;;;;;5023166;28;20540;-51
2023/01/27 02:08:18;;;;;;;12.60;5.60;;;4.50;99.90;;;;;;5022049;28;20041;-52
2023/01/27 02:10:44;;;;;;;17.42;6.00;;;4.50;99.90;;;;;;5024890;28;20033;-50
2023/01/27 02:13:10;;;;;;;16.40;6.68;;;4.50;99.90;;;;;;5025114;28;20037;-53
2023/01/27 02:15:37;;;;;;;18.23;8.30;;;4.50;99.90;;;;;;5026227;28;20728;-50
2023/01/27 02:18:03;;;;;;;18.73;9.07;;;4.60;99.90;;;;;;5026080;28;20124;-53
2023/01/27 02:20:35;;;;;;;20.67;9.00;;;4.60;99.90;;;;;;5019241;28;20519;-51
2023/01/27 02:23:35;;;;;;;22.92;8.88;;;4.60;99.90;;;;;;5026641;28;20091;-51
2023/01/27 02:26:19;;;;;;;19.80;10.35;;;4.50;99.90;;;;;;5038638;28;20034;-54
2023/01/27 02:28:50;;;;;;;17.38;9.82;;;4.50;99.90;;;;;;5026198;28;20033;-53
2023/01/27 02:31:16;;;;;;;20.38;9.38;;;4.50;99.90;;;;;;5025242;28;20040;-51
2023/01/27 02:33:41;;;;;;;18.30;9.80;;;4.50;99.90;;;;;;5024720;28;20037;-50
2023/01/27 02:36:13;;;;;;;20.40;10.38;;;4.50;99.90;;;;;;5025630;28;20030;-51
2023/01/27 02:38:48;;;;;;;25.13;11.52;;;4.50;99.90;;;;;;5026931;28;20033;-51
2023/01/27 02:41:25;;;;;;;27.90;13.18;;;4.50;99.90;;;;;;5023087;28;20048;-51
2023/01/27 02:43:51;;;;;;;17.23;7.95;;;4.60;99.90;;;;;;5023035;28;20041;-55
2023/01/27 02:46:17;;;;;;;24.58;13.40;;;4.50;99.90;;;;;;5029291;28;20056;-51
2023/01/27 02:48:42;;;;;;;26.90;14.07;;;4.50;99.90;;;;;;5026283;28;20461;-51
2023/01/27 02:51:08;;;;;;;27.00;12.25;;;4.40;99.90;;;;;;5024204;28;20484;-50
2023/01/27 02:53:34;;;;;;;21.52;12.32;;;4.50;99.90;;;;;;5025944;28;20120;-53
2023/01/27 02:55:59;;;;;;;24.73;13.00;;;4.40;99.90;;;;;;5025038;28;20051;-50
2023/01/27 02:58:25;;;;;;;20.73;12.35;;;4.40;99.90;;;;;;5026681;28;20692;-50
2023/01/27 03:00:51;;;;;;;19.90;9.43;;;4.40;99.90;;;;;;5029037;28;20512;-50
2023/01/27 03:03:16;;;;;;;26.52;14.32;;;4.40;99.90;;;;;;5024592;28;20037;-51
2023/01/27 03:05:43;;;;;;;22.70;13.18;;;4.40;99.90;;;;;;5027382;28;20029;-50
2023/01/27 03:08:08;;;;;;;21.83;12.93;;;4.30;99.90;;;;;;5024769;28;20025;-53
2023/01/27 03:10:34;;;;;;;26.73;13.68;;;4.30;99.90;;;;;;5025881;28;20040;-49
2023/01/27 03:12:59;;;;;;;23.50;14.50;;;4.30;99.90;;;;;;5023617;28;20052;-51
2023/01/27 03:18:21;;;;;;;20.25;11.70;;;4.20;99.90;;;;;;5024852;28;20036;-51
2023/01/27 03:20:48;;;;;;;16.52;9.57;;;4.10;99.90;;;;;;5023796;28;20083;-48
2023/01/27 03:23:15;;;;;;;17.33;8.43;;;4.00;99.90;;;;;;5024576;28;20060;-51
2023/01/27 03:25:46;;;;;;;13.30;7.60;;;4.10;99.90;;;;;;5025544;28;20029;-51
2023/01/27 03:28:12;;;;;;;10.98;5.75;;;4.00;99.90;;;;;;5023747;28;20038;-50
2023/01/27 03:30:38;;;;;;;15.43;8.63;;;4.10;99.90;;;;;;5030213;28;20036;-50
2023/01/27 03:33:06;;;;;;;12.82;7.70;;;4.00;99.90;;;;;;5022565;28;20039;-50
2023/01/27 03:35:38;;;;;;;9.75;5.60;;;4.10;99.90;;;;;;5023541;28;20033;-51
2023/01/27 03:46:24;;;;;;;9.02;5.40;;;4.00;99.90;;;;;;5031625;28;20683;-50
2023/01/27 03:48:52;;;;;;;16.95;8.18;;;3.90;99.90;;;;;;5027203;28;20090;-50
2023/01/27 03:51:20;;;;;;;12.20;7.63;;;3.80;99.90;;;;;;5025536;28;20032;-51
2023/01/27 03:53:46;;;;;;;15.20;9.02;;;4.00;99.90;;;;;;5021785;28;20091;-51
2023/01/27 03:56:12;;;;;;;16.77;8.23;;;4.10;99.90;;;;;;5026804;28;20029;-50
2023/01/27 03:58:40;;;;;;;15.25;8.63;;;4.00;99.90;;;;;;5028249;28;20499;-53
2023/01/27 04:01:15;;;;;;;13.82;8.70;;;4.00;99.90;;;;;;5032713;28;20033;-54
2023/01/27 04:09:35;;;;;;;19.70;11.60;;;4.10;99.90;;;;;;5024228;28;20552;-50
2023/01/27 04:12:03;;;;;;;22.08;12.07;;;4.10;99.90;;;;;;5028744;28;20029;-51
2023/01/27 04:14:37;;;;;;;20.95;10.38;;;4.10;99.90;;;;;;5029355;28;20030;-51
2023/01/27 04:17:05;;;;;;;19.65;11.15;;;3.90;99.90;;;;;;5028758;28;20574;-51
2023/01/27 04:19:31;;;;;;;20.75;10.05;;;3.80;99.90;;;;;;5025676;28;20037;-49
2023/01/27 04:21:59;;;;;;;20.20;11.15;;;3.90;99.90;;;;;;5027767;28;20038;-52
2023/01/27 04:24:24;;;;;;;20.80;10.95;;;3.90;99.90;;;;;;5029752;28;20401;-50
2023/01/27 04:26:53;;;;;;;20.27;12.18;;;3.80;99.90;;;;;;5030719;28;20044;-51
2023/01/27 04:29:20;;;;;;;22.50;11.88;;;3.90;99.90;;;;;;5027945;28;20079;-52
2023/01/27 04:31:45;;;;;;;22.83;12.05;;;3.90;99.90;;;;;;5027722;28;20041;-51
2023/01/27 04:34:11;;;;;;;21.75;11.55;;;3.90;99.90;;;;;;5026122;28;20045;-53
2023/01/27 04:36:38;;;;;;;22.45;13.23;;;3.80;99.90;;;;;;5026249;28;20042;-53
2023/01/27 04:39:03;;;;;;;24.40;12.07;;;3.80;99.90;;;;;;5028870;28;20563;-52
2023/01/27 04:41:29;;;;;;;26.20;12.88;;;3.70;99.90;;;;;;5028095;28;20038;-54
2023/01/27 04:43:54;;;;;;;24.35;14.07;;;3.70;99.90;;;;;;5028422;28;20073;-51
2023/01/27 04:46:20;;;;;;;26.35;14.77;;;3.80;99.90;;;;;;5029117;28;20037;-53
2023/01/27 04:48:45;;;;;;;28.83;14.25;;;3.90;99.90;;;;;;5027174;28;20026;-52
2023/01/27 04:51:11;;;;;;;24.63;14.13;;;4.00;99.90;;;;;;5027554;28;20045;-51
2023/01/27 04:53:36;;;;;;;24.35;14.80;;;4.00;99.90;;;;;;5027111;28;20049;-49
2023/01/27 04:56:05;;;;;;;26.17;14.05;;;4.00;99.90;;;;;;5026854;28;20033;-51
2023/01/27 04:58:31;;;;;;;24.90;14.45;;;3.80;99.90;;;;;;5027936;28;20507;-51
2023/01/27 05:00:57;;;;;;;25.00;13.70;;;3.80;99.90;;;;;;5029284;28;20045;-51
2023/01/27 05:03:23;;;;;;;24.13;13.45;;;3.80;99.90;;;;;;5026550;28;20037;-54
2023/01/27 05:05:48;;;;;;;27.83;13.20;;;3.70;99.90;;;;;;5028879;28;20022;-51
2023/01/27 05:08:14;;;;;;;26.27;13.38;;;3.90;99.90;;;;;;5028240;28;20399;-51
2023/01/27 05:10:43;;;;;;;25.02;14.10;;;3.70;99.90;;;;;;5026813;28;20128;-51
2023/01/27 05:13:08;;;;;;;24.42;13.40;;;3.90;99.90;;;;;;5026131;28;20042;-53
2023/01/27 05:15:34;;;;;;;23.48;13.30;;;4.10;99.90;;;;;;5027739;28;20038;-53
2023/01/27 05:18:00;;;;;;;30.30;13.75;;;3.90;99.90;;;;;;5026780;28;20092;-52
2023/01/27 05:20:25;;;;;;;23.48;11.93;;;3.80;99.90;;;;;;5023833;28;20526;-53
2023/01/27 05:22:51;;;;;;;25.83;13.82;;;3.80;99.90;;;;;;5028435;28;20377;-52
2023/01/27 05:25:16;;;;;;;24.75;12.68;;;3.70;99.90;;;;;;5026987;28;20036;-53
2023/01/27 05:27:42;;;;;;;26.77;13.07;;;3.70;99.90;;;;;;5027447;28;20108;-52
2023/01/27 05:30:08;;;;;;;19.20;11.77;;;3.80;99.90;;;;;;5022562;28;20036;-53
2023/01/27 05:32:34;;;;;;;22.20;12.43;;;3.70;99.90;;;;;;5026106;28;20037;-53
2023/01/27 05:35:00;;;;;;;23.85;11.95;;;3.80;99.90;;;;;;5027927;28;20570;-49
2023/01/27 05:37:26;;;;;;;26.50;13.50;;;3.80;99.90;;;;;;5026551;28;20125;-48
2023/01/27 05:39:51;;;;;;;25.33;13.10;;;3.80;99.90;;;;;;5026658;28;20120;-50
2023/01/27 05:42:17;;;;;;;24.95;14.55;;;3.80;99.90;;;;;;5026510;28;20041;-51
2023/01/27 05:44:42;;;;;;;26.42;13.65;;;3.80;99.90;;;;;;5027722;28;20026;-53
2023/01/27 05:47:08;;;;;;;21.75;12.45;;;3.90;99.90;;;;;;5028716;28;20044;-52
2023/01/27 05:49:34;;;;;;;22.02;12.52;;;3.80;99.90;;;;;;5023891;28;20026;-54
2023/01/27 05:51:59;;;;;;;25.55;14.63;;;3.80;99.90;;;;;;5024643;28;20045;-52
2023/01/27 05:54:25;;;;;;;22.08;13.25;;;3.90;99.90;;;;;;5027296;28;20038;-51
2023/01/27 05:56:51;;;;;;;25.00;12.88;;;3.80;99.90;;;;;;5026276;28;20481;-53
2023/01/27 05:59:16;;;;;;;24.42;13.75;;;3.80;99.90;;;;;;5025476;28;20347;-50
2023/01/27 06:01:42;;;;;;;24.42;13.80;;;3.90;99.90;;;;;;5027642;28;20555;-52
2023/01/27 06:04:10;;;;;;;23.30;13.38;;;3.80;99.90;;;;;;5025935;28;20129;-52
2023/01/27 06:06:36;;;;;;;22.13;14.10;;;3.80;99.90;;;;;;5026903;28;20120;-53
2023/01/27 06:09:02;;;;;;;22.63;12.82;;;3.80;99.90;;;;;;5026936;28;20108;-52
2023/01/27 06:11:28;;;;;;;25.77;13.02;;;3.80;99.90;;;;;;5028092;28;20560;-53
2023/01/27 06:13:54;;;;;;;23.23;13.32;;;3.90;99.90;;;;;;5026885;28;20033;-52
2023/01/27 06:16:21;;;;;;;20.75;12.50;;;3.90;99.90;;;;;;5028498;28;20103;-51
2023/01/27 06:18:47;;;;;;;27.27;13.50;;;3.90;99.90;;;;;;5023650;28;20076;-52
2023/01/27 06:21:15;;;;;;;18.88;11.20;;;3.90;99.90;;;;;;5025633;28;20053;-52
2023/01/27 06:23:40;;;;;;;17.77;10.80;;;3.90;99.90;;;;;;5026940;28;20029;-51
2023/01/27 06:26:09;;;;;;;16.70;10.15;;;3.80;99.90;;;;;;5027638;28;20416;-51
2023/01/27 06:28:36;;;;;;;16.70;10.90;;;3.90;99.90;;;;;;5022979;28;20064;-50
2023/01/27 06:31:21;;;;;;;18.02;11.30;;;4.00;99.90;;;;;;5025171;28;20041;-51
2023/01/27 06:33:46;;;;;;;18.65;11.30;;;4.10;99.90;;;;;;5022691;28;20068;-53
2023/01/27 06:36:15;;;;;;;16.45;9.80;;;4.10;99.90;;;;;;5027293;28;20068;-51
2023/01/27 06:38:41;;;;;;;19.35;10.43;;;4.00;99.90;;;;;;5027163;28;20037;-52
2023/01/27 06:41:07;;;;;;;19.35;10.35;;;4.00;99.90;;;;;;5026470;28;20114;-51
2023/01/27 06:43:33;;;;;;;18.17;11.43;;;4.00;99.90;;;;;;5024130;28;20032;-51
2023/01/27 06:45:59;;;;;;;16.95;11.25;;;4.10;99.90;;;;;;5027615;28;20041;-52
2023/01/27 06:48:26;;;;;;;19.23;11.13;;;4.00;99.90;;;;;;5024512;28;20803;-51
2023/01/27 06:50:52;;;;;;;16.38;10.32;;;3.90;99.90;;;;;;5023804;28;20445;-51
2023/01/27 06:53:18;;;;;;;17.13;11.07;;;4.00;99.90;;;;;;5019983;28;20040;-53
2023/01/27 06:55:44;;;;;;;18.65;11.20;;;3.90;99.90;;;;;;5026450;28;20116;-49
2023/01/27 06:58:11;;;;;;;18.30;11.80;;;4.00;99.90;;;;;;5026574;28;20113;-50
2023/01/27 07:00:38;;;;;;;17.73;11.98;;;4.10;99.90;;;;;;5028595;28;20029;-51
2023/01/27 07:03:04;;;;;;;17.70;10.88;;;4.20;99.90;;;;;;5025969;28;20044;-53
2023/01/27 07:05:31;;;;;;;15.38;9.32;;;4.10;99.90;;;;;;5023928;28;20068;-51
2023/01/27 07:07:56;;;;;;;15.32;10.43;;;4.10;99.90;;;;;;5026891;28;20037;-50
2023/01/27 07:10:22;;;;;;;14.65;9.70;;;4.20;99.90;;;;;;5026272;28;20088;-53
2023/01/27 07:12:47;;;;;;;16.08;10.50;;;4.20;99.90;;;;;;5026690;28;20029;-51
2023/01/27 07:15:13;;;;;;;13.70;9.57;;;4.30;99.90;;;;;;5027707;28;20034;-52
2023/01/27 07:17:39;;;;;;;14.07;9.55;;;4.20;99.90;;;;;;5030480;28;20064;-52
2023/01/27 07:20:06;;;;;;;13.82;9.13;;;4.10;99.90;;;;;;5027284;28;20026;-51
2023/01/27 07:22:32;;;;;;;15.65;9.77;;;4.10;99.90;;;;;;5030852;28;20030;-50
2023/01/27 07:24:58;;;;;;;14.27;9.88;;;4.10;99.90;;;;;;5027693;28;20036;-52
2023/01/27 07:27:24;;;;;;;16.60;10.20;;;4.20;99.90;;;;;;5028632;28;20665;-52
2023/01/27 07:29:50;;;;;;;15.18;9.35;;;4.20;99.90;;;;;;5024016;28;20503;-52
2023/01/27 07:32:16;;;;;;;14.82;10.07;;;4.20;99.90;;;;;;5025680;28;20133;-50
2023/01/27 07:34:42;;;;;;;14.00;9.80;;;4.20;99.90;;;;;;5015308;28;20112;-53
2023/01/27 07:37:08;;;;;;;15.18;10.25;;;4.30;99.90;;;;;;5030081;28;20034;-58
2023/01/27 07:39:35;;;;;;;14.40;9.63;;;4.30;99.90;;;;;;5030527;28;20045;-61
2023/01/27 07:42:01;;;;;;;13.65;9.27;;;4.40;99.90;;;;;;5029696;28;20488;-53
2023/01/27 07:44:27;;;;;;;15.00;10.18;;;4.50;99.90;;;;;;5029337;28;20087;-61
2023/01/27 07:46:53;;;;;;;14.35;10.10;;;4.40;99.90;;;;;;5030552;28;20029;-60
2023/01/27 07:49:18;;;;;;;16.05;10.73;;;4.20;99.90;;;;;;5025058;28;20376;-58
2023/01/27 07:51:44;;;;;;;19.98;11.57;;;4.20;99.90;;;;;;5025905;28;20132;-62
2023/01/27 07:54:10;;;;;;;16.67;9.48;;;4.30;99.90;;;;;;5028428;28;20034;-64
2023/01/27 07:56:36;;;;;;;20.80;12.70;;;4.30;99.90;;;;;;5029258;28;20037;-62
2023/01/27 07:59:02;;;;;;;19.85;12.18;;;4.30;99.90;;;;;;5028181;28;20120;-58
2023/01/27 08:01:28;;;;;;;18.35;12.10;;;4.30;99.90;;;;;;5026163;28;20112;-62
2023/01/27 08:03:53;;;;;;;19.58;12.57;;;4.30;99.90;;;;;;5029077;28;20116;-62
2023/01/27 08:06:19;;;;;;;21.77;11.50;;;4.30;99.90;;;;;;5027569;28;20049;-62
2023/01/27 08:08:44;;;;;;;16.65;11.77;;;4.30;99.90;;;;;;5029143;28;20033;-62
2023/01/27 08:11:13;;;;;;;17.83;10.98;;;4.30;99.90;;;;;;5028541;28;20033;-61
2023/01/27 08:13:39;;;;;;;16.45;11.18;;;4.30;99.90;;;;;;5023254;28;20069;-63
2023/01/27 08:16:10;;;;;;;18.02;12.05;;;4.40;99.90;;;;;;5023126;28;20520;-63
2023/01/27 08:18:35;;;;;;;17.00;11.48;;;4.30;99.90;;;;;;5025039;28;20041;-62
2023/01/27 08:21:07;;;;;;;16.67;11.85;;;4.30;99.90;;;;;;5021763;28;20033;-58
2023/01/27 08:23:33;;;;;;;19.63;12.38;;;4.30;99.90;;;;;;5026087;28;20042;-60
2023/01/27 08:26:01;;;;;;;21.52;11.95;;;4.30;99.90;;;;;;5021198;28;20048;-63
2023/01/27 08:28:28;;;;;;;17.88;12.18;;;4.30;99.90;;;;;;5020076;28;20084;-63
2023/01/27 08:30:54;;;;;;;18.52;12.82;;;4.30;99.90;;;;;;5024426;28;20212;-63
2023/01/27 08:33:22;;;;;;;15.55;10.63;;;4.40;99.90;;;;;;5021672;28;20069;-61
2023/01/27 08:35:49;;;;;;;15.85;11.68;;;4.40;99.90;;;;;;5025273;28;20417;-62
2023/01/27 08:38:17;;;;;;;16.80;11.90;;;4.40;99.90;;;;;;5030153;28;20033;-61
2023/01/27 08:40:43;;;;;;;16.23;11.45;;;4.50;99.90;;;;;;5036144;28;20117;-62
2023/01/27 08:43:09;;;;;;;17.42;11.57;;;4.50;99.90;;;;;;5027390;28;20112;-61
2023/01/27 08:45:35;;;;;;;16.65;11.73;;;4.50;99.90;;;;;;5026324;28;20555;-62
2023/01/27 08:48:02;;;;;;;19.50;11.57;;;4.50;99.90;;;;;;5023563;28;20116;-58
2023/01/27 08:50:29;;;;;;;16.30;12.00;;;4.40;99.90;;;;;;5020007;28;20147;-56
2023/01/27 08:52:57;;;;;;;16.02;10.95;;;4.60;99.90;;;;;;5023809;28;20539;-62
2023/01/27 08:55:25;;;;;;;16.20;10.70;;;4.60;99.90;;;;;;5023269;28;20022;-62
2023/01/27 08:57:50;;;;;;;20.15;11.48;;;4.70;99.90;;;;;;5027716;28;20117;-62
2023/01/27 09:00:16;;;;;;;16.60;11.15;;;4.60;99.90;;;;;;5026649;28;20042;-60
2023/01/27 09:02:43;;;;;;;17.77;11.45;;;4.60;99.90;;;;;;5025841;28;20052;-63
2023/01/27 09:05:08;;;;;;;15.90;11.63;;;4.50;99.90;;;;;;5026341;28;20022;-60
2023/01/27 09:07:34;;;;;;;15.57;11.75;;;4.40;99.90;;;;;;5023170;28;20412;-62
2023/01/27 09:10:00;;;;;;;19.20;12.43;;;4.60;99.90;;;;;;5027140;28;20527;-63
2023/01/27 09:12:25;;;;;;;17.98;11.77;;;4.70;99.90;;;;;;5025643;28;20504;-62
2023/01/27 09:14:51;;;;;;;16.33;11.35;;;4.70;99.90;;;;;;5024221;28;20033;-59
2023/01/27 09:17:18;;;;;;;16.08;10.93;;;4.80;99.90;;;;;;5026501;28;20036;-59
2023/01/27 09:19:45;;;;;;;16.60;10.80;;;4.60;99.90;;;;;;5025369;28;20029;-62
2023/01/27 09:22:10;;;;;;;13.45;9.93;;;4.60;99.90;;;;;;5027333;28;20115;-62
2023/01/27 09:24:36;;;;;;;14.50;9.75;;;4.70;99.90;;;;;;5026573;28;20469;-62
2023/01/27 09:27:01;;;;;;;14.35;9.90;;;4.80;99.90;;;;;;5023815;28;20029;-57
2023/01/27 09:29:28;;;;;;;13.25;9.68;;;4.80;99.90;;;;;;5022379;28;20041;-61
2023/01/27 09:31:53;;;;;;;12.85;9.07;;;4.90;99.90;;;;;;5023815;28;20036;-56
2023/01/27 09:34:19;;;;;;;12.57;9.18;;;4.90;99.90;;;;;;5017497;28;20041;-63
2023/01/27 09:36:50;;;;;;;13.10;9.25;;;4.80;99.90;;;;;;5023219;28;20041;-62
2023/01/27 09:39:18;;;;;;;11.32;8.07;;;4.90;99.90;;;;;;5023231;28;20025;-62
2023/01/27 09:42:05;;;;;;;11.40;8.35;;;4.90;99.90;;;;;;5026238;28;20480;-59
2023/01/27 09:44:49;;;;;;;10.52;8.43;;;4.90;99.90;;;;;;5026724;28;20437;-61
2023/01/27 09:47:40;;;;;;;13.13;9.10;;;4.90;99.90;;;;;;5028418;28;20037;-61
2023/01/27 09:50:28;;;;;;;13.48;7.72;;;4.90;99.90;;;;;;5020121;28;20034;-59
2023/01/27 09:53:24;;;;;;;12.43;9.10;;;4.90;99.90;;;;;;5024327;28;20041;-59
2023/01/27 09:56:03;;;;;;;12.32;8.18;;;5.00;99.90;;;;;;5026342;28;20044;-62
2023/01/27 09:58:28;;;;;;;12.82;8.63;;;5.00;99.90;;;;;;5023632;28;20025;-61
2023/01/27 10:01:21;;;;;;;13.07;9.52;;;4.90;99.90;;;;;;5024515;28;20033;-62
2023/01/27 10:03:55;;;;;;;16.13;11.37;;;5.00;99.90;;;;;;5016997;28;20112;-63
2023/01/27 10:06:59;;;;;;;19.88;12.38;;;5.00;99.90;;;;;;5024044;28;20120;-61
2023/01/27 10:09:46;;;;;;;15.60;12.10;;;5.00;99.90;;;;;;5023741;28;20030;-60
2023/01/27 10:12:33;;;;;;;18.23;11.57;;;5.10;99.90;;;;;;5022048;28;20416;-63
2023/01/27 10:15:23;;;;;;;18.52;12.38;;;5.00;99.90;;;;;;5018121;28;20092;-61
2023/01/27 10:18:07;;;;;;;19.92;13.88;;;5.10;99.90;;;;;;5023793;28;20099;-62
2023/01/27 10:20:35;;;;;;;13.40;8.52;;;5.10;99.90;;;;;;5014824;28;20476;-62
2023/01/27 10:23:28;;;;;;;17.92;13.60;;;5.10;99.90;;;;;;5024808;28;20021;-59
2023/01/27 10:26:02;;;;;;;19.80;12.50;;;5.20;99.90;;;;;;5019054;28;20033;-62
2023/01/27 10:28:30;;;;;;;17.30;11.60;;;5.20;99.90;;;;;;5022774;28;20264;-63
2023/01/27 10:31:10;;;;;;;18.83;11.13;;;5.10;99.90;;;;;;5026176;28;20041;-63
2023/01/27 10:33:55;;;;;;;14.85;8.98;;;5.20;99.90;;;;;;5014341;28;20046;-62
2023/01/27 10:36:29;;;;;;;14.10;10.50;;;5.30;99.90;;;;;;5022531;28;20049;-61
2023/01/27 10:39:32;;;;;;;14.75;9.60;;;5.20;99.90;;;;;;5017845;28;20033;-62
2023/01/27 10:42:19;;;;;;;15.63;10.55;;;5.30;99.90;;;;;;5005526;28;20034;-61
2023/01/27 10:45:10;;;;;;;14.80;11.48;;;5.30;99.90;;;;;;5017175;28;20473;-63
2023/01/27 10:47:53;;;;;;;12.63;8.93;;;5.30;99.90;;;;;;5016382;28;20034;-61
2023/01/27 10:50:29;;;;;;;14.70;10.37;;;5.30;99.90;;;;;;5018765;28;20038;-62
2023/01/27 10:53:04;;;;;;;13.35;8.70;;;5.30;99.90;;;;;;5018573;28;20782;-62
2023/01/27 10:55:56;;;;;;;14.32;10.68;;;5.30;99.90;;;;;;5020398;28;20034;-63
2023/01/27 10:58:41;;;;;;;10.48;7.15;;;5.40;99.90;;;;;;5015831;28;20091;-59
2023/01/27 11:01:10;;;;;;;14.25;10.07;;;5.50;99.90;;;;;;5017003;28;20124;-58
2023/01/27 11:03:57;;;;;;;13.02;10.57;;;5.50;99.90;;;;;;5017944;28;20824;-64
2023/01/27 11:06:28;;;;;;;16.25;11.88;;;5.40;99.90;;;;;;5018276;28;20041;-61
2023/01/27 11:09:29;;;;;;;13.35;10.88;;;5.50;99.90;;;;;;5022773;28;20029;-63
2023/01/27 11:11:59;;;;;;;15.68;10.70;;;5.60;99.90;;;;;;5018438;28;20117;-59
2023/01/27 11:14:30;;;;;;;14.73;10.75;;;5.60;99.90;;;;;;5024953;28;20048;-62
2023/01/27 11:17:28;;;;;;;15.57;9.68;;;5.50;99.90;;;;;;5026975;28;20080;-62
2023/01/27 11:20:23;;;;;;;17.98;11.95;;;5.60;99.90;;;;;;5017739;28;20540;-62
2023/01/27 11:23:03;;;;;;;14.07;10.15;;;5.60;99.90;;;;;;5023279;28;20488;-63
2023/01/27 11:25:44;;;;;;;11.93;8.27;;;5.60;99.90;;;;;;5025833;28;20022;-63
2023/01/27 11:28:28;;;;;;;16.83;11.52;;;5.50;99.90;;;;;;5023279;28;20026;-62
2023/01/27 11:31:04;;;;;;;15.82;12.18;;;5.60;99.90;;;;;;5026615;28;20119;-63
2023/01/27 11:33:51;;;;;;;14.73;9.48;;;5.40;99.90;;;;;;5018047;28;20038;-61
2023/01/27 11:36:17;;;;;;;17.35;11.55;;;5.40;99.90;;;;;;5026655;28;20025;-62
2023/01/27 11:38:42;;;;;;;12.13;8.77;;;5.40;99.90;;;;;;5046757;28;20388;-62
2023/01/27 11:41:09;;;;;;;16.02;12.90;;;5.30;99.90;;;;;;5037758;28;20488;-62
2023/01/27 11:43:37;;;;;;;15.52;11.88;;;5.40;99.90;;;;;;5034680;28;20175;-62
2023/01/27 11:46:06;;;;;;;14.70;12.02;;;5.40;99.90;;;;;;5028735;28;20684;-61
2023/01/27 11:48:49;;;;;;;16.40;11.95;;;5.40;99.90;;;;;;5030185;28;20467;-61
2023/01/27 11:51:20;;;;;;;16.35;12.05;;;5.30;99.90;;;;;;5019207;28;20121;-60
2023/01/27 11:54:03;;;;;;;15.35;11.68;;;5.40;99.90;;;;;;5026799;28;20033;-61
2023/01/27 11:56:30;;;;;;;;;;;5.40;99.90;;;;;;5026499;28;20325;-56
2023/01/27 11:59:05;;;;;;;13.75;10.23;;;5.40;99.90;;;;;;5025374;28;19913;-55
2023/01/27 12:01:46;;;;;;;14.35;9.43;;;5.30;99.90;;;;;;5027219;28;20175;-55
2023/01/27 12:04:21;;;;;;;13.50;9.65;;;5.30;99.90;;;;;;5027197;28;20038;-55
2023/01/27 12:07:03;;;;;;;13.98;9.60;;;5.30;99.90;;;;;;5021017;28;20137;-54
2023/01/27 12:09:39;;;;;;;13.70;10.38;;;5.30;99.90;;;;;;5009206;28;20065;-56
2023/01/27 12:12:13;;;;;;;11.85;9.52;;;5.30;99.90;;;;;;5029415;28;20037;-54
2023/01/27 12:14:46;;;;;;;10.95;8.88;;;5.40;99.90;;;;;;5028921;28;20072;-53
2023/01/27 12:17:18;;;;;;;11.90;8.95;;;5.40;99.90;;;;;;5032182;28;20069;-52
2023/01/27 12:19:45;;;;;;;11.05;8.13;;;5.50;99.90;;;;;;5028373;28;20037;-55
2023/01/27 12:22:31;;;;;;;10.43;7.72;;;5.50;99.90;;;;;;5029310;28;20037;-53
2023/01/27 12:25:01;;;;;;;8.40;5.72;;;5.60;99.90;;;;;;5029088;28;20497;-54
2023/01/27 12:27:30;;;;;;;8.43;6.07;;;5.50;99.90;;;;;;5028831;28;20108;-54
2023/01/27 12:30:00;;;;;;;7.40;5.72;;;5.50;99.90;;;;;;5012011;28;20121;-54
2023/01/27 12:32:47;;;;;;;7.70;5.57;;;5.50;99.90;;;;;;5016466;28;20098;-54
2023/01/27 12:35:32;;;;;;;9.15;5.75;;;5.50;99.90;;;;;;5031496;28;20044;-53
2023/01/27 12:38:06;;;;;;;7.63;6.43;;;5.50;99.90;;;;;;5019691;28;20501;-54
2023/01/27 12:40:33;;;;;;;10.57;6.43;;;5.60;99.90;;;;;;5021153;28;20487;-55
2023/01/27 12:43:04;;;;;;;9.45;6.65;;;5.60;99.90;;;;;;5049814;28;20518;-54
2023/01/27 12:45:39;;;;;;;9.57;6.00;;;5.50;99.90;;;;;;5035986;28;20500;-55
2023/01/27 12:48:08;;;;;;;10.18;6.68;;;5.50;99.90;;;;;;5032273;28;20036;-56
2023/01/27 12:50:49;;;;;;;8.27;6.15;;;5.60;99.90;;;;;;5048460;28;20032;-55
2023/01/27 12:53:26;;;;;;;7.97;6.43;;;5.60;99.90;;;;;;5048736;28;20408;-54
2023/01/27 12:56:16;;;;;;;9.00;6.20;;;5.70;99.90;;;;;;5049489;28;20033;-54
2023/01/27 12:58:54;;;;;;;7.15;5.65;;;5.90;99.90;;;;;;5008668;28;20038;-54
2023/01/27 13:01:28;;;;;;;8.63;6.72;;;5.70;99.90;;;;;;5028111;28;20574;-54
2023/01/27 13:04:04;;;;;;;8.98;6.15;;;5.70;99.90;;;;;;5033066;28;20053;-53
2023/01/27 13:06:42;;;;;;;6.85;5.97;;;5.70;99.90;;;;;;5021868;28;20040;-53
2023/01/27 13:09:32;;;;;;;7.60;6.05;;;5.70;99.90;;;;;;5010287;28;20044;-55
2023/01/27 13:12:01;;;;;;;7.40;6.35;;;5.80;99.90;;;;;;5008308;28;20030;-54
2023/01/27 13:14:29;;;;;;;7.80;5.40;;;5.80;99.90;;;;;;5012239;28;20064;-55
2023/01/27 13:16:57;;;;;;;8.57;6.55;;;5.70;99.90;;;;;;5032000;28;20045;-56
2023/01/27 13:19:44;;;;;;;8.60;6.28;;;5.70;99.90;;;;;;5025627;28;20048;-54
2023/01/27 13:22:18;;;;;;;8.02;5.78;;;5.80;99.90;;;;;;5028654;28;20488;-56
2023/01/27 13:24:48;;;;;;;7.85;5.22;;;5.70;99.90;;;;;;5029084;28;20025;-56
2023/01/27 13:27:18;;;;;;;7.78;4.68;;;5.70;99.90;;;;;;5027475;28;20029;-54
2023/01/27 13:29:53;;;;;;;9.48;4.70;;;5.60;99.90;;;;;;5023546;28;20048;-54
2023/01/27 13:32:24;;;;;;;7.60;4.80;;;5.70;99.90;;;;;;5022937;28;20049;-55